sensor_id;sensor_type;location;lat;lon;timestamp;temperature;humidity
17423;DHT22;8829;47.932;7.810;2023-08-07T00:00:26;13.70;99.90
17423;DHT22;8829;47.932;7.810;2023-08-07T00:02:52;13.70;99.90
17423;DHT22;8829;47.932;7.810;2023-08-07T00:05:19;13.90;99.90
17423;DHT22;8829;47.932;7.810;2023-08-07T00:07:47;13.80;99.90
17423;DHT22;8829;47.932;7.810;2023-08-07T00:10:14;13.50;99.90
17423;DHT22;8829;47.932;7.810;2023-08-07T00:12:41;13.40;99.90
17423;DHT22;8829;47.932;7.810;2023-08-07T00:15:09;13.20;99.90
17423;DHT22;8829;47.932;7.810;2023-08-07T00:17:35;12.90;99.90
17423;DHT22;8829;47.932;7.810;2023-08-07T00:20:03;12.90;99.90
17423;DHT22;8829;47.932;7.810;2023-08-07T00:22:30;12.90;99.90
17423;DHT22;8829;47.932;7.810;2023-08-07T00:24:58;12.80;99.90
17423;DHT22;8829;47.932;7.810;2023-08-07T00:27:25;12.90;99.90
17423;DHT22;8829;47.932;7.810;2023-08-07T00:29:52;12.90;99.90
17423;DHT22;8829;47.932;7.810;2023-08-07T00:32:18;12.90;99.90
17423;DHT22;8829;47.932;7.810;2023-08-07T00:34:45;12.90;99.90
17423;DHT22;8829;47.932;7.810;2023-08-07T00:37:12;12.80;99.90
17423;DHT22;8829;47.932;7.810;2023-08-07T00:39:39;12.90;99.90
17423;DHT22;8829;47.932;7.810;2023-08-07T00:42:07;12.90;99.90
17423;DHT22;8829;47.932;7.810;2023-08-07T00:44:34;13.00;99.90
17423;DHT22;8829;47.932;7.810;2023-08-07T00:47:00;12.90;99.90
17423;DHT22;8829;47.932;7.810;2023-08-07T00:49:27;12.80;99.90
17423;DHT22;8829;47.932;7.810;2023-08-07T00:51:55;12.80;99.90
17423;DHT22;8829;47.932;7.810;2023-08-07T00:54:22;12.80;99.90
17423;DHT22;8829;47.932;7.810;2023-08-07T00:56:50;12.80;99.90
17423;DHT22;8829;47.932;7.810;2023-08-07T00:59:19;12.70;99.90
17423;DHT22;8829;47.932;7.810;2023-08-07T01:01:45;12.70;99.90
17423;DHT22;8829;47.932;7.810;2023-08-07T01:04:12;12.60;99.90
17423;DHT22;8829;47.932;7.810;2023-08-07T01:06:40;12.60;99.90
17423;DHT22;8829;47.932;7.810;2023-08-07T01:09:06;12.70;99.90
17423;DHT22;8829;47.932;7.810;2023-08-07T01:11:36;12.80;99.90
17423;DHT22;8829;47.932;7.810;2023-08-07T01:14:10;12.90;99.90
17423;DHT22;8829;47.932;7.810;2023-08-07T01:16:45;13.00;99.90
17423;DHT22;8829;47.932;7.810;2023-08-07T01:19:20;12.80;99.90
17423;DHT22;8829;47.932;7.810;2023-08-07T01:21:57;12.70;99.90
17423;DHT22;8829;47.932;7.810;2023-08-07T01:24:30;12.70;99.90
17423;DHT22;8829;47.932;7.810;2023-08-07T01:27:00;12.80;99.90
17423;DHT22;8829;47.932;7.810;2023-08-07T01:29:33;12.80;99.90
17423;DHT22;8829;47.932;7.810;2023-08-07T01:32:04;12.70;99.90
17423;DHT22;8829;47.932;7.810;2023-08-07T01:34:34;12.70;99.90
17423;DHT22;8829;47.932;7.810;2023-08-07T01:37:05;12.50;99.90
17423;DHT22;8829;47.932;7.810;2023-08-07T01:39:33;12.60;99.90
17423;DHT22;8829;47.932;7.810;2023-08-07T01:42:03;12.60;99.90
17423;DHT22;8829;47.932;7.810;2023-08-07T01:44:30;12.60;99.90
17423;DHT22;8829;47.932;7.810;2023-08-07T01:46:57;12.60;99.90
17423;DHT22;8829;47.932;7.810;2023-08-07T01:49:24;12.60;99.90
17423;DHT22;8829;47.932;7.810;2023-08-07T01:51:50;12.60;99.90
17423;DHT22;8829;47.932;7.810;2023-08-07T01:54:18;12.60;99.90
17423;DHT22;8829;47.932;7.810;2023-08-07T01:56:45;12.60;99.90
17423;DHT22;8829;47.932;7.810;2023-08-07T01:59:12;12.60;99.90
17423;DHT22;8829;47.932;7.810;2023-08-07T02:01:38;12.60;99.90
17423;DHT22;8829;47.932;7.810;2023-08-07T02:04:05;12.60;99.90
17423;DHT22;8829;47.932;7.810;2023-08-07T02:06:32;12.80;99.90
17423;DHT22;8829;47.932;7.810;2023-08-07T02:08:59;12.90;99.90
17423;DHT22;8829;47.932;7.810;2023-08-07T02:11:27;13.00;99.90
17423;DHT22;8829;47.932;7.810;2023-08-07T02:13:53;12.70;99.90
17423;DHT22;8829;47.932;7.810;2023-08-07T02:16:20;12.50;99.90
17423;DHT22;8829;47.932;7.810;2023-08-07T02:18:47;12.40;99.90
17423;DHT22;8829;47.932;7.810;2023-08-07T02:21:13;12.40;99.90
17423;DHT22;8829;47.932;7.810;2023-08-07T02:23:40;12.60;99.90
17423;DHT22;8829;47.932;7.810;2023-08-07T02:26:07;12.70;99.90
17423;DHT22;8829;47.932;7.810;2023-08-07T02:28:35;12.70;99.90
17423;DHT22;8829;47.932;7.810;2023-08-07T02:31:01;12.60;99.90
17423;DHT22;8829;47.932;7.810;2023-08-07T02:33:28;12.30;99.90
17423;DHT22;8829;47.932;7.810;2023-08-07T02:35:56;12.40;99.90
17423;DHT22;8829;47.932;7.810;2023-08-07T02:38:22;12.60;99.90
17423;DHT22;8829;47.932;7.810;2023-08-07T02:40:49;12.50;99.90
17423;DHT22;8829;47.932;7.810;2023-08-07T02:43:16;12.60;99.90
17423;DHT22;8829;47.932;7.810;2023-08-07T02:45:44;12.60;99.90
17423;DHT22;8829;47.932;7.810;2023-08-07T02:48:10;12.30;99.90
17423;DHT22;8829;47.932;7.810;2023-08-07T02:50:37;12.30;99.90
17423;DHT22;8829;47.932;7.810;2023-08-07T02:53:04;12.20;99.90
17423;DHT22;8829;47.932;7.810;2023-08-07T02:55:30;12.10;99.90
17423;DHT22;8829;47.932;7.810;2023-08-07T02:57:57;12.30;99.90
17423;DHT22;8829;47.932;7.810;2023-08-07T03:00:24;12.10;99.90
17423;DHT22;8829;47.932;7.810;2023-08-07T03:02:52;12.20;99.90
17423;DHT22;8829;47.932;7.810;2023-08-07T03:05:18;12.20;99.90
17423;DHT22;8829;47.932;7.810;2023-08-07T03:07:45;12.20;99.90
17423;DHT22;8829;47.932;7.810;2023-08-07T03:10:12;12.20;99.90
17423;DHT22;8829;47.932;7.810;2023-08-07T03:12:39;12.30;99.90
17423;DHT22;8829;47.932;7.810;2023-08-07T03:15:06;12.30;99.90
17423;DHT22;8829;47.932;7.810;2023-08-07T03:17:33;12.40;99.90
17423;DHT22;8829;47.932;7.810;2023-08-07T03:20:01;12.40;99.90
17423;DHT22;8829;47.932;7.810;2023-08-07T03:22:29;12.30;99.90
17423;DHT22;8829;47.932;7.810;2023-08-07T03:24:56;12.30;99.90
17423;DHT22;8829;47.932;7.810;2023-08-07T03:27:22;12.40;99.90
17423;DHT22;8829;47.932;7.810;2023-08-07T03:29:49;12.40;99.90
17423;DHT22;8829;47.932;7.810;2023-08-07T03:32:16;12.60;99.90
17423;DHT22;8829;47.932;7.810;2023-08-07T03:34:43;12.70;99.90
17423;DHT22;8829;47.932;7.810;2023-08-07T03:37:11;12.70;99.90
17423;DHT22;8829;47.932;7.810;2023-08-07T03:39:38;12.70;99.90
17423;DHT22;8829;47.932;7.810;2023-08-07T03:42:05;12.80;99.90
17423;DHT22;8829;47.932;7.810;2023-08-07T03:44:32;12.80;99.90
17423;DHT22;8829;47.932;7.810;2023-08-07T03:47:00;12.60;99.90
17423;DHT22;8829;47.932;7.810;2023-08-07T03:49:26;12.60;99.90
17423;DHT22;8829;47.932;7.810;2023-08-07T03:51:53;12.70;99.90
17423;DHT22;8829;47.932;7.810;2023-08-07T03:54:21;12.60;99.90
17423;DHT22;8829;47.932;7.810;2023-08-07T03:56:48;12.60;99.90
17423;DHT22;8829;47.932;7.810;2023-08-07T03:59:16;12.60;99.90
17423;DHT22;8829;47.932;7.810;2023-08-07T04:01:43;12.60;99.90
17423;DHT22;8829;47.932;7.810;2023-08-07T04:04:09;12.60;99.90
17423;DHT22;8829;47.932;7.810;2023-08-07T04:06:36;12.80;99.90
17423;DHT22;8829;47.932;7.810;2023-08-07T04:09:03;12.80;99.90
17423;DHT22;8829;47.932;7.810;2023-08-07T04:11:31;12.70;99.90
17423;DHT22;8829;47.932;7.810;2023-08-07T04:13:59;12.70;99.90
17423;DHT22;8829;47.932;7.810;2023-08-07T04:16:25;12.70;99.90
17423;DHT22;8829;47.932;7.810;2023-08-07T04:18:52;12.60;99.90
17423;DHT22;8829;47.932;7.810;2023-08-07T04:21:19;12.60;99.90
17423;DHT22;8829;47.932;7.810;2023-08-07T04:23:45;12.60;99.90
17423;DHT22;8829;47.932;7.810;2023-08-07T04:26:12;12.60;99.90
17423;DHT22;8829;47.932;7.810;2023-08-07T04:28:41;12.60;99.90
17423;DHT22;8829;47.932;7.810;2023-08-07T04:31:07;12.60;99.90
17423;DHT22;8829;47.932;7.810;2023-08-07T04:33:34;12.70;99.90
17423;DHT22;8829;47.932;7.810;2023-08-07T04:36:01;12.90;99.90
17423;DHT22;8829;47.932;7.810;2023-08-07T04:38:28;12.90;99.90
17423;DHT22;8829;47.932;7.810;2023-08-07T04:40:55;13.00;99.90
17423;DHT22;8829;47.932;7.810;2023-08-07T04:43:21;13.00;99.90
17423;DHT22;8829;47.932;7.810;2023-08-07T04:45:49;12.90;99.90
17423;DHT22;8829;47.932;7.810;2023-08-07T04:48:16;13.00;99.90
17423;DHT22;8829;47.932;7.810;2023-08-07T04:50:46;12.90;99.90
17423;DHT22;8829;47.932;7.810;2023-08-07T04:53:12;12.90;99.90
17423;DHT22;8829;47.932;7.810;2023-08-07T04:55:39;12.90;99.90
17423;DHT22;8829;47.932;7.810;2023-08-07T04:58:06;12.90;99.90
17423;DHT22;8829;47.932;7.810;2023-08-07T05:00:33;12.90;99.90
17423;DHT22;8829;47.932;7.810;2023-08-07T05:03:01;12.90;99.90
17423;DHT22;8829;47.932;7.810;2023-08-07T05:05:28;13.00;99.90
17423;DHT22;8829;47.932;7.810;2023-08-07T05:07:55;13.00;99.90
17423;DHT22;8829;47.932;7.810;2023-08-07T05:10:23;13.00;99.90
17423;DHT22;8829;47.932;7.810;2023-08-07T05:12:50;13.00;99.90
17423;DHT22;8829;47.932;7.810;2023-08-07T05:15:20;13.10;99.90
17423;DHT22;8829;47.932;7.810;2023-08-07T05:17:47;13.10;99.90
17423;DHT22;8829;47.932;7.810;2023-08-07T05:20:15;13.10;99.90
17423;DHT22;8829;47.932;7.810;2023-08-07T05:22:42;13.10;99.90
17423;DHT22;8829;47.932;7.810;2023-08-07T05:25:09;13.10;99.90
17423;DHT22;8829;47.932;7.810;2023-08-07T05:27:37;13.20;99.90
17423;DHT22;8829;47.932;7.810;2023-08-07T05:30:04;13.20;99.90
17423;DHT22;8829;47.932;7.810;2023-08-07T05:32:31;13.30;99.90
17423;DHT22;8829;47.932;7.810;2023-08-07T05:34:59;13.20;99.90
17423;DHT22;8829;47.932;7.810;2023-08-07T05:37:27;13.00;99.90
17423;DHT22;8829;47.932;7.810;2023-08-07T05:39:55;13.00;99.90
17423;DHT22;8829;47.932;7.810;2023-08-07T05:42:21;13.10;99.90
17423;DHT22;8829;47.932;7.810;2023-08-07T05:44:48;13.10;99.90
17423;DHT22;8829;47.932;7.810;2023-08-07T05:47:15;13.20;99.90
17423;DHT22;8829;47.932;7.810;2023-08-07T05:49:42;13.20;99.90
17423;DHT22;8829;47.932;7.810;2023-08-07T05:52:08;13.20;99.90
17423;DHT22;8829;47.932;7.810;2023-08-07T05:54:36;13.20;99.90
17423;DHT22;8829;47.932;7.810;2023-08-07T05:57:03;13.20;99.90
17423;DHT22;8829;47.932;7.810;2023-08-07T05:59:30;13.20;99.90
17423;DHT22;8829;47.932;7.810;2023-08-07T06:01:57;13.30;99.90
17423;DHT22;8829;47.932;7.810;2023-08-07T06:04:23;13.30;99.90
17423;DHT22;8829;47.932;7.810;2023-08-07T06:06:50;13.40;99.90
17423;DHT22;8829;47.932;7.810;2023-08-07T06:09:17;13.50;99.90
17423;DHT22;8829;47.932;7.810;2023-08-07T06:11:45;13.60;99.90
17423;DHT22;8829;47.932;7.810;2023-08-07T06:14:12;13.70;99.90
17423;DHT22;8829;47.932;7.810;2023-08-07T06:16:38;13.80;99.90
17423;DHT22;8829;47.932;7.810;2023-08-07T06:19:05;14.00;99.90
17423;DHT22;8829;47.932;7.810;2023-08-07T06:21:32;14.30;99.90
17423;DHT22;8829;47.932;7.810;2023-08-07T06:23:58;14.50;99.90
17423;DHT22;8829;47.932;7.810;2023-08-07T06:26:25;14.60;99.90
17423;DHT22;8829;47.932;7.810;2023-08-07T06:28:53;14.50;99.90
17423;DHT22;8829;47.932;7.810;2023-08-07T06:31:20;14.50;99.90
17423;DHT22;8829;47.932;7.810;2023-08-07T06:33:47;14.40;99.90
17423;DHT22;8829;47.932;7.810;2023-08-07T06:36:13;14.40;99.90
17423;DHT22;8829;47.932;7.810;2023-08-07T06:38:40;14.30;99.90
17423;DHT22;8829;47.932;7.810;2023-08-07T06:41:07;14.30;99.90
17423;DHT22;8829;47.932;7.810;2023-08-07T06:43:33;14.30;99.90
17423;DHT22;8829;47.932;7.810;2023-08-07T06:46:01;14.40;99.90
17423;DHT22;8829;47.932;7.810;2023-08-07T06:48:28;14.40;99.90
17423;DHT22;8829;47.932;7.810;2023-08-07T06:50:55;14.40;99.90
17423;DHT22;8829;47.932;7.810;2023-08-07T06:53:21;14.40;99.90
17423;DHT22;8829;47.932;7.810;2023-08-07T06:55:48;14.40;99.90
17423;DHT22;8829;47.932;7.810;2023-08-07T06:58:15;14.30;99.90
17423;DHT22;8829;47.932;7.810;2023-08-07T07:00:41;14.50;99.90
17423;DHT22;8829;47.932;7.810;2023-08-07T07:03:09;14.50;99.90
17423;DHT22;8829;47.932;7.810;2023-08-07T07:05:36;14.40;99.90
17423;DHT22;8829;47.932;7.810;2023-08-07T07:08:03;14.40;99.90
17423;DHT22;8829;47.932;7.810;2023-08-07T07:10:30;14.40;99.90
17423;DHT22;8829;47.932;7.810;2023-08-07T07:12:57;14.40;99.90
17423;DHT22;8829;47.932;7.810;2023-08-07T07:15:24;14.40;99.90
17423;DHT22;8829;47.932;7.810;2023-08-07T07:17:50;14.40;99.90
17423;DHT22;8829;47.932;7.810;2023-08-07T07:20:18;14.40;99.90
17423;DHT22;8829;47.932;7.810;2023-08-07T07:22:45;14.50;99.90
17423;DHT22;8829;47.932;7.810;2023-08-07T07:25:12;14.50;99.90
17423;DHT22;8829;47.932;7.810;2023-08-07T07:27:39;14.60;99.90
17423;DHT22;8829;47.932;7.810;2023-08-07T07:30:07;14.70;99.90
17423;DHT22;8829;47.932;7.810;2023-08-07T07:32:34;14.70;99.90
17423;DHT22;8829;47.932;7.810;2023-08-07T07:35:00;14.70;99.90
17423;DHT22;8829;47.932;7.810;2023-08-07T07:37:30;14.80;99.90
17423;DHT22;8829;47.932;7.810;2023-08-07T07:39:56;14.80;99.90
17423;DHT22;8829;47.932;7.810;2023-08-07T07:42:23;14.80;99.90
17423;DHT22;8829;47.932;7.810;2023-08-07T07:44:50;14.90;99.90
17423;DHT22;8829;47.932;7.810;2023-08-07T07:47:17;15.00;99.90
17423;DHT22;8829;47.932;7.810;2023-08-07T07:49:45;15.00;99.90
17423;DHT22;8829;47.932;7.810;2023-08-07T07:52:13;15.00;99.90
17423;DHT22;8829;47.932;7.810;2023-08-07T07:54:41;15.00;99.90
17423;DHT22;8829;47.932;7.810;2023-08-07T07:57:07;14.90;99.90
17423;DHT22;8829;47.932;7.810;2023-08-07T07:59:34;14.80;99.90
17423;DHT22;8829;47.932;7.810;2023-08-07T08:02:01;14.90;99.90
17423;DHT22;8829;47.932;7.810;2023-08-07T08:04:27;14.90;99.90
17423;DHT22;8829;47.932;7.810;2023-08-07T08:06:54;15.00;99.90
17423;DHT22;8829;47.932;7.810;2023-08-07T08:09:21;15.10;99.90
17423;DHT22;8829;47.932;7.810;2023-08-07T08:11:49;15.30;99.90
17423;DHT22;8829;47.932;7.810;2023-08-07T08:14:16;15.60;99.90
17423;DHT22;8829;47.932;7.810;2023-08-07T08:16:42;15.70;99.90
17423;DHT22;8829;47.932;7.810;2023-08-07T08:19:09;15.90;99.90
17423;DHT22;8829;47.932;7.810;2023-08-07T08:21:36;15.90;99.90
17423;DHT22;8829;47.932;7.810;2023-08-07T08:24:04;15.80;99.90
17423;DHT22;8829;47.932;7.810;2023-08-07T08:26:31;15.60;99.90
17423;DHT22;8829;47.932;7.810;2023-08-07T08:28:59;15.50;99.90
17423;DHT22;8829;47.932;7.810;2023-08-07T08:31:26;15.40;99.90
17423;DHT22;8829;47.932;7.810;2023-08-07T08:33:53;15.30;99.90
17423;DHT22;8829;47.932;7.810;2023-08-07T08:36:19;15.50;99.90
17423;DHT22;8829;47.932;7.810;2023-08-07T08:38:47;15.80;99.90
17423;DHT22;8829;47.932;7.810;2023-08-07T08:41:13;16.00;99.90
17423;DHT22;8829;47.932;7.810;2023-08-07T08:43:41;16.10;99.90
17423;DHT22;8829;47.932;7.810;2023-08-07T08:46:11;16.30;99.90
17423;DHT22;8829;47.932;7.810;2023-08-07T08:48:40;16.40;99.90
17423;DHT22;8829;47.932;7.810;2023-08-07T08:51:09;16.70;99.90
17423;DHT22;8829;47.932;7.810;2023-08-07T08:53:37;17.10;99.90
17423;DHT22;8829;47.932;7.810;2023-08-07T08:56:06;17.40;99.90
17423;DHT22;8829;47.932;7.810;2023-08-07T08:58:33;17.70;99.90
17423;DHT22;8829;47.932;7.810;2023-08-07T09:01:00;17.70;99.90
17423;DHT22;8829;47.932;7.810;2023-08-07T09:03:28;17.70;99.90
17423;DHT22;8829;47.932;7.810;2023-08-07T09:05:58;17.70;99.90
17423;DHT22;8829;47.932;7.810;2023-08-07T09:08:27;18.00;99.90
17423;DHT22;8829;47.932;7.810;2023-08-07T09:10:55;18.10;99.90
17423;DHT22;8829;47.932;7.810;2023-08-07T09:13:23;17.70;99.90
17423;DHT22;8829;47.932;7.810;2023-08-07T09:15:50;17.00;99.90
17423;DHT22;8829;47.932;7.810;2023-08-07T09:18:17;16.50;99.90
17423;DHT22;8829;47.932;7.810;2023-08-07T09:20:45;16.10;99.90
17423;DHT22;8829;47.932;7.810;2023-08-07T09:23:12;15.80;99.90
17423;DHT22;8829;47.932;7.810;2023-08-07T09:25:39;16.10;99.90
17423;DHT22;8829;47.932;7.810;2023-08-07T09:28:06;16.60;99.90
17423;DHT22;8829;47.932;7.810;2023-08-07T09:30:34;17.10;99.90
17423;DHT22;8829;47.932;7.810;2023-08-07T09:33:02;17.40;99.90
17423;DHT22;8829;47.932;7.810;2023-08-07T09:35:30;17.60;99.90
17423;DHT22;8829;47.932;7.810;2023-08-07T09:37:59;17.50;99.90
17423;DHT22;8829;47.932;7.810;2023-08-07T09:40:26;17.60;99.90
17423;DHT22;8829;47.932;7.810;2023-08-07T09:42:54;17.70;99.90
17423;DHT22;8829;47.932;7.810;2023-08-07T09:45:22;17.80;99.90
17423;DHT22;8829;47.932;7.810;2023-08-07T09:47:59;17.90;99.90
17423;DHT22;8829;47.932;7.810;2023-08-07T09:50:26;17.70;99.90
17423;DHT22;8829;47.932;7.810;2023-08-07T09:52:53;17.60;99.90
17423;DHT22;8829;47.932;7.810;2023-08-07T09:55:22;17.40;99.90
17423;DHT22;8829;47.932;7.810;2023-08-07T09:57:49;17.40;99.90
17423;DHT22;8829;47.932;7.810;2023-08-07T10:00:17;17.50;99.90
17423;DHT22;8829;47.932;7.810;2023-08-07T10:02:46;17.60;99.90
17423;DHT22;8829;47.932;7.810;2023-08-07T10:05:13;17.70;99.90
17423;DHT22;8829;47.932;7.810;2023-08-07T10:07:40;17.90;99.90
17423;DHT22;8829;47.932;7.810;2023-08-07T10:10:08;18.00;99.90
17423;DHT22;8829;47.932;7.810;2023-08-07T10:12:36;18.20;99.90
17423;DHT22;8829;47.932;7.810;2023-08-07T10:15:04;18.30;99.90
17423;DHT22;8829;47.932;7.810;2023-08-07T10:17:32;18.20;99.90
17423;DHT22;8829;47.932;7.810;2023-08-07T10:19:58;18.10;99.90
17423;DHT22;8829;47.932;7.810;2023-08-07T10:22:26;18.00;99.90
17423;DHT22;8829;47.932;7.810;2023-08-07T10:24:54;18.00;99.90
17423;DHT22;8829;47.932;7.810;2023-08-07T10:27:23;17.80;99.90
17423;DHT22;8829;47.932;7.810;2023-08-07T10:29:54;17.80;99.90
17423;DHT22;8829;47.932;7.810;2023-08-07T10:32:23;17.70;99.90
17423;DHT22;8829;47.932;7.810;2023-08-07T10:34:52;17.80;99.90
17423;DHT22;8829;47.932;7.810;2023-08-07T10:37:32;18.20;99.90
17423;DHT22;8829;47.932;7.810;2023-08-07T10:40:05;18.20;99.90
17423;DHT22;8829;47.932;7.810;2023-08-07T10:42:50;18.40;99.90
17423;DHT22;8829;47.932;7.810;2023-08-07T10:45:19;18.40;99.90
17423;DHT22;8829;47.932;7.810;2023-08-07T10:47:57;18.10;99.90
17423;DHT22;8829;47.932;7.810;2023-08-07T10:50:28;17.80;99.90
17423;DHT22;8829;47.932;7.810;2023-08-07T10:52:55;17.60;99.90
17423;DHT22;8829;47.932;7.810;2023-08-07T10:55:22;17.40;99.90
17423;DHT22;8829;47.932;7.810;2023-08-07T10:57:50;17.30;99.90
17423;DHT22;8829;47.932;7.810;2023-08-07T11:00:19;17.30;99.90
17423;DHT22;8829;47.932;7.810;2023-08-07T11:02:48;17.00;99.90
17423;DHT22;8829;47.932;7.810;2023-08-07T11:05:16;17.00;99.90
17423;DHT22;8829;47.932;7.810;2023-08-07T11:07:44;17.00;99.90
17423;DHT22;8829;47.932;7.810;2023-08-07T11:10:13;16.80;99.90
17423;DHT22;8829;47.932;7.810;2023-08-07T11:12:41;17.20;99.90
17423;DHT22;8829;47.932;7.810;2023-08-07T11:15:12;17.60;99.90
17423;DHT22;8829;47.932;7.810;2023-08-07T11:17:41;17.70;99.90
17423;DHT22;8829;47.932;7.810;2023-08-07T11:20:09;17.90;99.90
17423;DHT22;8829;47.932;7.810;2023-08-07T11:22:38;18.10;99.90
17423;DHT22;8829;47.932;7.810;2023-08-07T11:25:07;18.20;99.90
17423;DHT22;8829;47.932;7.810;2023-08-07T11:27:37;18.30;99.90
17423;DHT22;8829;47.932;7.810;2023-08-07T11:30:04;18.30;99.90
17423;DHT22;8829;47.932;7.810;2023-08-07T11:32:31;18.50;99.90
17423;DHT22;8829;47.932;7.810;2023-08-07T11:34:59;18.80;99.90
17423;DHT22;8829;47.932;7.810;2023-08-07T11:37:28;19.10;99.90
17423;DHT22;8829;47.932;7.810;2023-08-07T11:40:00;19.10;99.90
17423;DHT22;8829;47.932;7.810;2023-08-07T11:42:27;18.90;99.90
17423;DHT22;8829;47.932;7.810;2023-08-07T11:44:54;18.80;99.90
17423;DHT22;8829;47.932;7.810;2023-08-07T11:47:21;18.60;99.90
17423;DHT22;8829;47.932;7.810;2023-08-07T11:49:48;18.60;99.90
17423;DHT22;8829;47.932;7.810;2023-08-07T11:52:16;18.60;99.90
17423;DHT22;8829;47.932;7.810;2023-08-07T11:54:46;18.70;99.90
17423;DHT22;8829;47.932;7.810;2023-08-07T11:57:16;18.80;99.90
17423;DHT22;8829;47.932;7.810;2023-08-07T11:59:47;19.10;99.90
17423;DHT22;8829;47.932;7.810;2023-08-07T12:02:14;19.40;99.90
17423;DHT22;8829;47.932;7.810;2023-08-07T12:04:41;19.50;99.90
17423;DHT22;8829;47.932;7.810;2023-08-07T12:07:08;19.50;99.90
17423;DHT22;8829;47.932;7.810;2023-08-07T12:09:37;19.60;99.90
17423;DHT22;8829;47.932;7.810;2023-08-07T12:12:06;19.80;99.90
17423;DHT22;8829;47.932;7.810;2023-08-07T12:14:33;19.90;99.90
17423;DHT22;8829;47.932;7.810;2023-08-07T12:17:01;20.00;99.90
17423;DHT22;8829;47.932;7.810;2023-08-07T12:19:36;20.00;99.90
17423;DHT22;8829;47.932;7.810;2023-08-07T12:22:05;19.80;99.90
17423;DHT22;8829;47.932;7.810;2023-08-07T12:24:33;19.80;99.90
17423;DHT22;8829;47.932;7.810;2023-08-07T12:27:03;19.80;99.90
17423;DHT22;8829;47.932;7.810;2023-08-07T12:29:29;19.80;99.90
17423;DHT22;8829;47.932;7.810;2023-08-07T12:31:56;19.80;99.90
17423;DHT22;8829;47.932;7.810;2023-08-07T12:34:24;19.90;99.90
17423;DHT22;8829;47.932;7.810;2023-08-07T12:36:51;20.00;99.90
17423;DHT22;8829;47.932;7.810;2023-08-07T12:39:18;19.90;99.90
17423;DHT22;8829;47.932;7.810;2023-08-07T12:41:44;19.80;99.90
17423;DHT22;8829;47.932;7.810;2023-08-07T12:44:12;20.00;99.90
17423;DHT22;8829;47.932;7.810;2023-08-07T12:46:39;20.10;99.90
17423;DHT22;8829;47.932;7.810;2023-08-07T12:49:08;20.10;99.90
17423;DHT22;8829;47.932;7.810;2023-08-07T12:51:35;20.30;99.90
17423;DHT22;8829;47.932;7.810;2023-08-07T12:54:02;20.20;99.90
17423;DHT22;8829;47.932;7.810;2023-08-07T12:56:29;20.40;99.90
17423;DHT22;8829;47.932;7.810;2023-08-07T12:58:56;20.50;99.90
17423;DHT22;8829;47.932;7.810;2023-08-07T13:01:24;20.40;99.90
17423;DHT22;8829;47.932;7.810;2023-08-07T13:03:51;20.30;99.90
17423;DHT22;8829;47.932;7.810;2023-08-07T13:06:18;20.00;99.90
17423;DHT22;8829;47.932;7.810;2023-08-07T13:08:44;19.80;99.90
17423;DHT22;8829;47.932;7.810;2023-08-07T13:11:12;19.80;99.90
17423;DHT22;8829;47.932;7.810;2023-08-07T13:13:39;19.60;99.90
17423;DHT22;8829;47.932;7.810;2023-08-07T13:16:05;19.50;99.90
17423;DHT22;8829;47.932;7.810;2023-08-07T13:18:33;19.30;99.90
17423;DHT22;8829;47.932;7.810;2023-08-07T13:21:00;19.40;99.90
17423;DHT22;8829;47.932;7.810;2023-08-07T13:23:27;19.30;99.90
17423;DHT22;8829;47.932;7.810;2023-08-07T13:25:54;19.10;99.90
17423;DHT22;8829;47.932;7.810;2023-08-07T13:28:22;19.00;99.90
17423;DHT22;8829;47.932;7.810;2023-08-07T13:30:48;19.00;99.90
17423;DHT22;8829;47.932;7.810;2023-08-07T13:33:16;19.00;99.90
17423;DHT22;8829;47.932;7.810;2023-08-07T13:35:46;19.20;99.90
17423;DHT22;8829;47.932;7.810;2023-08-07T13:38:13;19.30;99.90
17423;DHT22;8829;47.932;7.810;2023-08-07T13:40:41;19.50;99.90
17423;DHT22;8829;47.932;7.810;2023-08-07T13:43:09;19.50;99.90
17423;DHT22;8829;47.932;7.810;2023-08-07T13:45:36;19.70;99.90
17423;DHT22;8829;47.932;7.810;2023-08-07T13:48:03;19.80;99.90
17423;DHT22;8829;47.932;7.810;2023-08-07T13:50:31;19.80;99.90
17423;DHT22;8829;47.932;7.810;2023-08-07T13:52:59;19.70;99.90
17423;DHT22;8829;47.932;7.810;2023-08-07T13:55:26;19.40;99.90
17423;DHT22;8829;47.932;7.810;2023-08-07T13:57:54;19.30;99.90
17423;DHT22;8829;47.932;7.810;2023-08-07T14:00:20;19.20;99.90
17423;DHT22;8829;47.932;7.810;2023-08-07T14:02:47;19.20;99.90
17423;DHT22;8829;47.932;7.810;2023-08-07T14:05:14;19.20;99.90
17423;DHT22;8829;47.932;7.810;2023-08-07T14:07:41;18.90;99.90
17423;DHT22;8829;47.932;7.810;2023-08-07T14:10:09;18.90;99.90
17423;DHT22;8829;47.932;7.810;2023-08-07T14:12:36;18.90;99.90
17423;DHT22;8829;47.932;7.810;2023-08-07T14:15:03;18.80;99.90
17423;DHT22;8829;47.932;7.810;2023-08-07T14:17:29;18.90;99.90
17423;DHT22;8829;47.932;7.810;2023-08-07T14:19:56;18.90;99.90
17423;DHT22;8829;47.932;7.810;2023-08-07T14:22:23;19.00;99.90
17423;DHT22;8829;47.932;7.810;2023-08-07T14:24:49;19.00;99.90
17423;DHT22;8829;47.932;7.810;2023-08-07T14:27:17;19.00;99.90
17423;DHT22;8829;47.932;7.810;2023-08-07T14:29:44;19.00;99.90
17423;DHT22;8829;47.932;7.810;2023-08-07T14:32:11;18.80;99.90
17423;DHT22;8829;47.932;7.810;2023-08-07T14:34:37;18.70;99.90
17423;DHT22;8829;47.932;7.810;2023-08-07T14:37:04;18.60;99.90
17423;DHT22;8829;47.932;7.810;2023-08-07T14:39:31;18.70;99.90
17423;DHT22;8829;47.932;7.810;2023-08-07T14:41:58;18.70;99.90
17423;DHT22;8829;47.932;7.810;2023-08-07T14:44:26;18.70;99.90
17423;DHT22;8829;47.932;7.810;2023-08-07T14:46:54;18.70;99.90
17423;DHT22;8829;47.932;7.810;2023-08-07T14:49:21;18.70;99.90
17423;DHT22;8829;47.932;7.810;2023-08-07T14:51:48;18.80;99.90
17423;DHT22;8829;47.932;7.810;2023-08-07T14:54:15;18.90;99.90
17423;DHT22;8829;47.932;7.810;2023-08-07T14:56:41;18.80;99.90
17423;DHT22;8829;47.932;7.810;2023-08-07T14:59:08;18.90;99.90
17423;DHT22;8829;47.932;7.810;2023-08-07T15:01:36;18.90;99.90
17423;DHT22;8829;47.932;7.810;2023-08-07T15:04:03;18.80;99.90
17423;DHT22;8829;47.932;7.810;2023-08-07T15:06:30;18.80;99.90
17423;DHT22;8829;47.932;7.810;2023-08-07T15:08:57;18.70;99.90
17423;DHT22;8829;47.932;7.810;2023-08-07T15:11:24;18.70;99.90
17423;DHT22;8829;47.932;7.810;2023-08-07T15:13:51;18.70;99.90
17423;DHT22;8829;47.932;7.810;2023-08-07T15:16:18;18.70;99.90
17423;DHT22;8829;47.932;7.810;2023-08-07T15:18:46;18.80;99.90
17423;DHT22;8829;47.932;7.810;2023-08-07T15:21:13;18.90;99.90
17423;DHT22;8829;47.932;7.810;2023-08-07T15:23:40;18.90;99.90
17423;DHT22;8829;47.932;7.810;2023-08-07T15:26:06;18.90;99.90
17423;DHT22;8829;47.932;7.810;2023-08-07T15:28:33;18.90;99.90
17423;DHT22;8829;47.932;7.810;2023-08-07T15:31:00;18.70;99.90
17423;DHT22;8829;47.932;7.810;2023-08-07T15:33:27;18.50;99.90
17423;DHT22;8829;47.932;7.810;2023-08-07T15:35:55;18.40;99.90
17423;DHT22;8829;47.932;7.810;2023-08-07T15:38:23;18.20;99.90
17423;DHT22;8829;47.932;7.810;2023-08-07T15:40:51;18.10;99.90
17423;DHT22;8829;47.932;7.810;2023-08-07T15:43:17;17.90;99.90
17423;DHT22;8829;47.932;7.810;2023-08-07T15:45:45;17.40;99.90